Terminal Aerodrome Forecast
Issued by NWS Salt Lake City, UT

Home | Current Version | Previous Version | Text Only | Print | Product List | Glossary On
Versions: 1 2 3 4 5 6 7 8 9 10 11 12 13 14 15 16 17 18 19 20 21 22 23 24 25 26 27 28 29 30 31 32 33 34 35 36 37 38 39 40 41 42 43 44 45 46 47 48 49 50
000
FTUS45 KSLC 260541
TAFSLC
TAF
KSLC 260541Z 2606/2712 15006KT P6SM SCT140 SCT200
     FM261500 19012KT P6SM VCSH SCT080 BKN120
     FM262100 29012G18KT P6SM VCTS SCT070 BKN090CB
     FM270100 30012KT P6SM SCT060 BKN080
     FM270400 36006KT P6SM SCT120=

USA.gov is the U.S. government's official web portal to all federal, state and local government web resources and services.